Habib Bourguiba, Tunisia

11:10 PM CET on November 27, 2014 (GMT +0100)
Habib Bourguiba | Change Station
CLOSE
Current Station
Airport
Location: Habib Bourguiba,
Elevation: 7 ft
Nearby Weather Stations

Elev 7 ft 35.76 °N, 10.75 °E | Updated 10 minutes ago

Clear
Clear
63 °F
Feels Like 63 °F
N
4
Wind Variable Wind from SSE

Today
High -- | Low -- °F
--% Chance of Precip.
Yesterday
High -- | Low -- °F
Precip. -- in
7:04 AM 5:04 PM
Waxing Crescent, 33% visible
Pressure 29.80 in
Visibility 5.0 miles
Clouds
Dew Point 61 °F
Humidity 94%
Rainfall 0.00 in
Snow Depth Not available.
UV Not available.
Pollen Not available.
Air Quality Not available.
Flu Activity Not available.
METAR DTMB 272200Z 15003KT 8000 NSC 17/16 Q1009 NOSIG

More Conditions Fewer Conditions

Pressure 29.80 in
Visibility 5.0 miles
Clouds
Dew Point 61 °F
Humidity 94%
Rainfall 0.00 in
Snow Depth Not available.
UV Not available.
Pollen Not available.
Air Quality Not available.
Flu Activity Not available.
METAR DTMB 272200Z 15003KT 8000 NSC 17/16 Q1009 NOSIG

More Conditions Fewer Conditions

10-Day Weather Forecast

Almanac

Astronomy

Nov. 27, 2014 Rise Set
Actual Time
Civil Twilight
Nautical Twilight
Astronomical Twilight
Moon
Length of Visible Light
Length of Day
Tomorrow will be .
, % of the Moon is Illuminated

Today's Extremes

Country Highs Country Lows

Community

WunderPhotos

Upload Photos

1,774,124 photos uploaded!

WunderBlogs® & News

Nearby

Air Quality

  Air Quality AQ Index Pollutant
Not available.

Snow Depth

Station Depth Elevation

Earthquake Activity

City Distance Mag. Time & Date
Minimum magnitude displayed is 2.5.

Coastal Water Temperatures

Place Temperature

Nearby Weather Stations